Time;durP1;ratioP1;P1;durP2;ratioP2;P2;SDS_P1;SDS_P2;PMS_P1;PMS_P2;Temp;Humidity;BMP_temperature;BMP_pressure;BME280_temperature;BME280_humidity;BME280_pressure;Samples;Min_cycle;Max_cycle;Signal;HPM_P1;HPM_P2
2022/08/14 00:02:18;;;;;;;8.73;7.90;;;21.20;85.30;;;;;;4916860;29;20492;-78
2022/08/14 00:04:43;;;;;;;8.52;7.63;;;21.10;85.50;;;;;;4917305;29;20445;-78
2022/08/14 00:07:13;;;;;;;8.10;7.30;;;21.10;85.60;;;;;;4917221;29;20083;-78
2022/08/14 00:09:39;;;;;;;8.20;7.40;;;21.00;85.70;;;;;;4917308;29;20051;-78
2022/08/14 00:12:05;;;;;;;8.55;7.72;;;21.10;86.00;;;;;;4933111;29;20165;-79
2022/08/14 00:14:32;;;;;;;8.43;7.63;;;21.00;86.20;;;;;;4915164;29;20053;-79
2022/08/14 00:16:58;;;;;;;8.82;8.02;;;21.00;86.50;;;;;;4901146;29;20044;-79
2022/08/14 00:19:27;;;;;;;9.50;7.95;;;20.90;86.80;;;;;;4917330;29;20044;-79
2022/08/14 00:21:53;;;;;;;9.13;8.32;;;20.90;87.10;;;;;;4917278;29;20039;-78
2022/08/14 00:24:19;;;;;;;9.43;8.52;;;20.90;87.40;;;;;;4922562;29;20094;-78
2022/08/14 00:26:48;;;;;;;8.70;7.90;;;20.90;87.50;;;;;;4901895;29;20409;-79
2022/08/14 00:29:14;;;;;;;9.38;8.48;;;20.90;87.60;;;;;;4916982;29;20112;-79
2022/08/14 00:31:41;;;;;;;9.20;8.18;;;20.80;88.00;;;;;;4919757;29;20047;-79
2022/08/14 00:34:07;;;;;;;8.50;7.70;;;20.80;88.10;;;;;;4919848;29;20083;-78
2022/08/14 00:36:34;;;;;;;9.48;8.65;;;20.80;88.30;;;;;;4920642;29;20071;-78
2022/08/14 00:38:59;;;;;;;9.05;8.15;;;20.70;88.90;;;;;;4916199;29;20046;-78
2022/08/14 00:41:30;;;;;;;8.85;8.05;;;20.70;88.70;;;;;;4939685;29;20051;-78
2022/08/14 00:43:58;;;;;;;9.88;7.95;;;20.70;89.10;;;;;;4922596;29;20496;-78
2022/08/14 00:46:24;;;;;;;9.38;8.38;;;20.70;89.20;;;;;;4904812;29;20532;-78
2022/08/14 00:48:50;;;;;;;9.10;8.30;;;20.60;89.40;;;;;;4920263;29;20043;-78
2022/08/14 00:51:17;;;;;;;8.65;7.72;;;20.70;89.60;;;;;;4904389;29;20067;-78
2022/08/14 00:53:46;;;;;;;8.80;8.00;;;20.60;90.00;;;;;;4905221;29;20118;-78
2022/08/14 00:56:12;;;;;;;8.90;8.00;;;20.60;90.20;;;;;;4904826;29;20042;-78
2022/08/14 00:58:38;;;;;;;8.88;7.97;;;20.60;90.20;;;;;;4920640;29;20091;-79
2022/08/14 01:01:08;;;;;;;9.35;7.82;;;20.60;90.40;;;;;;4920914;29;20043;-78
2022/08/14 01:03:36;;;;;;;9.15;8.32;;;20.50;90.50;;;;;;4904599;29;20127;-78
2022/08/14 01:06:03;;;;;;;8.60;7.80;;;20.50;90.60;;;;;;4919144;29;20036;-78
2022/08/14 01:08:30;;;;;;;9.10;8.20;;;20.50;90.70;;;;;;4920309;29;20143;-77
2022/08/14 01:10:57;;;;;;;8.95;8.05;;;20.50;90.80;;;;;;4920700;29;20069;-77
2022/08/14 01:13:31;;;;;;;8.95;7.70;;;20.50;91.00;;;;;;4919859;29;20078;-77
2022/08/14 01:16:06;;;;;;;9.07;8.27;;;20.50;91.00;;;;;;4895558;29;20433;-78
2022/08/14 01:21:30;;;;;;;9.40;7.95;;;20.50;91.30;;;;;;4919992;29;20050;-78
2022/08/14 01:23:56;;;;;;;9.52;8.63;;;20.40;91.30;;;;;;4919995;29;20401;-77
2022/08/14 01:26:24;;;;;;;8.27;7.47;;;20.40;91.40;;;;;;4904685;29;20409;-77
2022/08/14 01:28:54;;;;;;;8.18;7.43;;;20.40;91.50;;;;;;4919538;29;20043;-78
2022/08/14 01:31:23;;;;;;;8.48;7.68;;;20.40;91.60;;;;;;4915726;29;20500;-78
2022/08/14 01:33:51;;;;;;;8.50;7.70;;;20.40;91.90;;;;;;4901911;29;20039;-78
2022/08/14 01:36:19;;;;;;;8.75;7.68;;;20.30;91.90;;;;;;4914822;29;20095;-78
2022/08/14 01:38:47;;;;;;;8.20;7.40;;;20.30;92.10;;;;;;4914226;29;20081;-79
2022/08/14 01:41:19;;;;;;;8.57;7.80;;;20.30;92.30;;;;;;4914338;29;20127;-79
2022/08/14 01:43:53;;;;;;;8.43;7.63;;;20.20;92.40;;;;;;4917180;29;20090;-78
2022/08/14 01:46:22;;;;;;;8.60;7.70;;;20.20;92.50;;;;;;4904002;29;20051;-79
2022/08/14 01:48:53;;;;;;;8.20;7.38;;;20.20;92.80;;;;;;4903814;29;20107;-78
2022/08/14 01:51:25;;;;;;;8.80;8.00;;;20.20;92.80;;;;;;4918256;29;20040;-78
2022/08/14 01:53:59;;;;;;;8.55;7.50;;;20.20;93.10;;;;;;4903483;29;20035;-79
2022/08/14 01:56:37;;;;;;;8.27;7.53;;;20.10;93.20;;;;;;4936462;29;20043;-78
2022/08/14 01:59:20;;;;;;;8.23;7.53;;;20.10;93.40;;;;;;4903197;29;20046;-79
2022/08/14 02:01:50;;;;;;;9.48;8.13;;;20.10;93.70;;;;;;4919524;29;20052;-79
2022/08/14 02:04:19;;;;;;;8.98;8.00;;;20.10;93.80;;;;;;4903572;29;20123;-79
2022/08/14 02:06:46;;;;;;;8.68;7.78;;;20.00;94.00;;;;;;4903434;29;20147;-79
2022/08/14 02:09:16;;;;;;;8.25;7.45;;;20.00;94.30;;;;;;4903559;29;20043;-79
2022/08/14 02:11:58;;;;;;;9.60;7.83;;;20.00;94.40;;;;;;4920527;29;20051;-79
2022/08/14 02:14:33;;;;;;;8.80;8.00;;;19.90;94.60;;;;;;4916038;29;20048;-79
2022/08/14 02:17:01;;;;;;;8.50;7.60;;;19.90;94.90;;;;;;4903577;29;20079;-79
2022/08/14 02:19:30;;;;;;;8.85;8.05;;;19.90;95.00;;;;;;4919117;29;20040;-79
2022/08/14 02:22:02;;;;;;;9.32;7.68;;;19.80;95.20;;;;;;4919150;29;20123;-79
2022/08/14 02:24:29;;;;;;;8.73;7.93;;;19.80;95.80;;;;;;4911569;29;20090;-78
2022/08/14 02:26:58;;;;;;;8.07;7.38;;;19.80;95.70;;;;;;4937750;29;20055;-79
2022/08/14 02:29:26;;;;;;;8.85;7.95;;;19.80;96.00;;;;;;4918368;29;20036;-77
2022/08/14 02:31:56;;;;;;;9.07;8.18;;;19.70;96.20;;;;;;4903427;29;20508;-78
2022/08/14 02:34:32;;;;;;;9.02;8.15;;;19.70;96.30;;;;;;4902969;29;20046;-79
2022/08/14 02:37:04;;;;;;;10.90;7.95;;;19.80;96.60;;;;;;4903031;29;20047;-78
2022/08/14 02:40:14;;;;;;;8.65;7.75;;;19.80;97.00;;;;;;4922822;29;20055;-79
2022/08/14 03:38:41;;;;;;;9.60;8.63;;;19.50;99.80;;;;;;4857013;29;20557;-78
2022/08/14 03:45:25;;;;;;;10.00;9.10;;;19.40;99.90;;;;;;4843104;29;20106;-79
2022/08/14 03:48:18;;;;;;;9.73;8.73;;;19.40;99.90;;;;;;4826658;29;20131;-79
2022/08/14 03:50:52;;;;;;;10.05;9.05;;;19.40;99.90;;;;;;4814524;29;20594;-79
2022/08/14 03:53:33;;;;;;;10.95;9.85;;;19.30;99.90;;;;;;4839152;29;20049;-79
2022/08/14 03:55:59;;;;;;;10.50;9.50;;;19.30;99.90;;;;;;4875877;29;20575;-79
2022/08/14 03:58:27;;;;;;;10.25;9.00;;;19.30;99.90;;;;;;4901798;29;20047;-78
2022/08/14 04:00:53;;;;;;;10.90;9.80;;;19.20;99.90;;;;;;4915691;29;20130;-79
2022/08/14 04:03:23;;;;;;;10.52;9.52;;;19.20;99.90;;;;;;4902742;29;20095;-78
2022/08/14 04:05:49;;;;;;;10.70;9.70;;;19.20;99.90;;;;;;4902310;29;20427;-79
2022/08/14 04:08:17;;;;;;;9.85;8.98;;;19.10;99.90;;;;;;4904925;29;20164;-79
2022/08/14 04:10:45;;;;;;;10.20;9.23;;;19.10;99.90;;;;;;4904952;29;20047;-78
2022/08/14 04:13:20;;;;;;;9.90;9.00;;;19.10;99.90;;;;;;4905969;29;20392;-79
2022/08/14 04:15:49;;;;;;;10.93;9.93;;;19.10;99.90;;;;;;4905553;29;20689;-79
2022/08/14 04:18:18;;;;;;;10.85;9.85;;;19.00;99.90;;;;;;4906050;29;20067;-79
2022/08/14 04:20:45;;;;;;;10.80;9.75;;;19.10;99.90;;;;;;4920847;29;20048;-79
2022/08/14 04:23:19;;;;;;;10.18;9.27;;;19.00;99.90;;;;;;4905883;29;20051;-79
2022/08/14 04:25:46;;;;;;;10.70;9.60;;;19.00;99.90;;;;;;4904843;29;20131;-79
2022/08/14 04:28:15;;;;;;;10.98;9.88;;;19.00;99.90;;;;;;4920985;29;20119;-78
2022/08/14 04:30:48;;;;;;;11.38;10.27;;;19.00;99.90;;;;;;4905988;29;20040;-78
2022/08/14 04:33:24;;;;;;;10.75;9.65;;;18.90;99.90;;;;;;4906063;29;20121;-78
2022/08/14 04:35:51;;;;;;;11.05;10.05;;;18.90;99.90;;;;;;4905541;29;20040;-79
2022/08/14 04:43:50;;;;;;;11.65;10.60;;;18.90;99.90;;;;;;4921190;29;20535;-80
2022/08/14 04:46:20;;;;;;;11.07;10.00;;;18.80;99.90;;;;;;4905385;29;20126;-78
2022/08/14 04:48:50;;;;;;;11.77;10.68;;;18.90;99.90;;;;;;4920391;29;20043;-80
2022/08/14 04:51:27;;;;;;;12.38;11.18;;;18.90;99.90;;;;;;4922342;29;20038;-81
2022/08/14 04:53:56;;;;;;;12.38;10.65;;;18.80;99.90;;;;;;4905590;29;20031;-80
2022/08/14 04:56:33;;;;;;;12.00;10.90;;;18.80;99.90;;;;;;4906373;29;20043;-80
2022/08/14 04:59:05;;;;;;;11.73;10.63;;;18.80;99.90;;;;;;4932743;29;20035;-80
2022/08/14 05:01:31;;;;;;;11.68;10.57;;;18.80;99.90;;;;;;4923122;29;20500;-80
2022/08/14 05:03:57;;;;;;;12.25;11.15;;;18.80;99.90;;;;;;4905387;29;20042;-81
2022/08/14 05:06:32;;;;;;;11.73;10.63;;;18.80;99.90;;;;;;4904668;29;20086;-79
2022/08/14 05:08:58;;;;;;;11.93;10.82;;;18.80;99.90;;;;;;4905123;29;20040;-78
2022/08/14 05:11:24;;;;;;;11.82;10.65;;;18.80;99.90;;;;;;4917963;29;20046;-79
2022/08/14 05:13:50;;;;;;;11.75;10.65;;;18.80;99.90;;;;;;4904390;29;20115;-78
2022/08/14 05:16:16;;;;;;;11.57;10.48;;;18.80;99.90;;;;;;4903631;29;20078;-78
2022/08/14 05:18:45;;;;;;;12.00;10.85;;;18.90;99.90;;;;;;4903324;29;20039;-79
2022/08/14 05:21:21;;;;;;;12.38;11.32;;;18.90;99.90;;;;;;4904555;29;20436;-78
2022/08/14 05:24:09;;;;;;;;;;;19.00;99.90;;;;;;4927467;29;20492;-78
2022/08/14 05:26:45;;;;;;;12.18;11.00;;;19.00;99.90;;;;;;4935705;29;19972;-79
2022/08/14 05:29:11;;;;;;;12.35;11.00;;;19.00;99.90;;;;;;4911341;29;20126;-78
2022/08/14 05:31:50;;;;;;;12.25;11.05;;;19.10;99.90;;;;;;4903318;29;20192;-79
2022/08/14 05:34:28;;;;;;;12.65;11.48;;;19.10;99.90;;;;;;4915207;29;20096;-79
2022/08/14 05:37:10;;;;;;;11.63;10.52;;;19.20;99.90;;;;;;4885292;29;20178;-78
2022/08/14 05:39:40;;;;;;;11.75;10.65;;;19.20;99.90;;;;;;4898577;29;20080;-78
2022/08/14 05:42:07;;;;;;;12.30;11.13;;;19.30;99.90;;;;;;4906715;29;20042;-79
2022/08/14 05:44:33;;;;;;;11.38;10.38;;;19.40;99.90;;;;;;4919713;29;20046;-78
2022/08/14 05:47:02;;;;;;;11.60;10.50;;;19.40;99.90;;;;;;4918672;29;20110;-78
2022/08/14 05:49:30;;;;;;;12.38;11.18;;;19.50;99.90;;;;;;4903362;29;20043;-79
2022/08/14 05:52:00;;;;;;;12.27;11.18;;;19.50;99.90;;;;;;4896968;29;20040;-78
2022/08/14 05:54:38;;;;;;;11.82;10.82;;;19.60;99.90;;;;;;4919708;29;20054;-80
2022/08/14 05:57:07;;;;;;;11.82;10.68;;;19.70;99.90;;;;;;4900167;29;20050;-78
2022/08/14 05:59:37;;;;;;;11.73;10.63;;;19.80;99.90;;;;;;4917879;29;20500;-78
2022/08/14 06:02:08;;;;;;;12.18;11.02;;;19.90;99.90;;;;;;4917818;29;20044;-79
2022/08/14 06:04:37;;;;;;;13.57;10.75;;;19.90;99.90;;;;;;4902941;29;20043;-79
2022/08/14 06:07:04;;;;;;;11.70;10.60;;;20.00;99.90;;;;;;4907923;29;20123;-79
2022/08/14 06:09:30;;;;;;;11.98;10.88;;;20.10;99.90;;;;;;4918574;29;20040;-78
2022/08/14 06:12:39;;;;;;;11.13;10.00;;;20.20;99.90;;;;;;4899829;29;20042;-81
2022/08/14 06:15:06;;;;;;;10.10;9.20;;;20.40;99.90;;;;;;4920107;29;20048;-79
2022/08/14 06:20:58;;;;;;;10.60;9.60;;;20.60;99.90;;;;;;4911540;29;20089;-80
2022/08/14 06:23:24;;;;;;;11.05;9.70;;;20.80;99.90;;;;;;4918300;29;20075;-80
2022/08/14 06:25:49;;;;;;;10.43;9.45;;;20.80;99.90;;;;;;4926859;29;20536;-80
2022/08/14 06:28:29;;;;;;;10.88;9.77;;;20.90;99.90;;;;;;4917999;29;20110;-83
2022/08/14 06:30:55;;;;;;;10.27;9.38;;;21.00;99.90;;;;;;4895420;29;20058;-79
2022/08/14 06:33:21;;;;;;;10.18;9.07;;;21.20;99.90;;;;;;4918564;29;20040;-77
2022/08/14 06:35:48;;;;;;;11.05;9.98;;;21.30;99.90;;;;;;4917042;29;20043;-77
2022/08/14 06:38:18;;;;;;;9.82;8.93;;;21.40;99.90;;;;;;4902798;29;20046;-78
2022/08/14 06:40:45;;;;;;;10.13;9.23;;;21.50;99.90;;;;;;4903839;29;20043;-77
2022/08/14 06:43:14;;;;;;;10.30;9.40;;;21.60;99.90;;;;;;4908122;29;20076;-80
2022/08/14 06:45:41;;;;;;;10.75;9.55;;;21.70;99.90;;;;;;4931601;29;20043;-79
2022/08/14 06:48:15;;;;;;;9.43;8.52;;;21.90;99.90;;;;;;4902069;29;20032;-77
2022/08/14 06:50:42;;;;;;;9.32;8.43;;;21.90;99.90;;;;;;4903115;29;20441;-78
2022/08/14 06:53:09;;;;;;;8.57;7.78;;;22.00;99.90;;;;;;4918885;29;20078;-78
2022/08/14 06:55:38;;;;;;;8.68;7.97;;;22.10;99.90;;;;;;4902436;29;20042;-78
2022/08/14 06:58:03;;;;;;;10.13;9.13;;;22.20;99.90;;;;;;4908526;29;20046;-80
2022/08/14 07:00:29;;;;;;;9.48;8.60;;;22.30;99.60;;;;;;4918952;29;20040;-77
2022/08/14 07:05:50;;;;;;;9.02;8.13;;;22.50;98.50;;;;;;4915746;29;20044;-78
2022/08/14 07:08:33;;;;;;;10.38;9.13;;;22.60;97.80;;;;;;4917538;29;20059;-78
2022/08/14 07:11:11;;;;;;;9.27;8.38;;;22.70;97.60;;;;;;4917175;29;20046;-77
2022/08/14 07:14:19;;;;;;;8.52;7.57;;;22.80;97.40;;;;;;4902413;29;20134;-78
2022/08/14 07:18:03;;;;;;;8.60;7.80;;;22.90;97.80;;;;;;4870732;29;20045;-78
2022/08/14 07:20:44;;;;;;;8.77;7.97;;;23.10;96.20;;;;;;4910402;29;20048;-77
2022/08/14 07:26:33;;;;;;;8.10;7.40;;;23.20;96.20;;;;;;4932891;29;20059;-79
2022/08/14 07:28:59;;;;;;;7.80;7.00;;;23.40;95.60;;;;;;4901354;29;20437;-78
2022/08/14 07:31:24;;;;;;;8.45;7.75;;;23.50;95.10;;;;;;4922971;29;20039;-78
2022/08/14 07:33:50;;;;;;;8.38;7.55;;;23.50;94.50;;;;;;4903054;29;20066;-78
2022/08/14 07:36:18;;;;;;;8.82;8.02;;;23.60;94.10;;;;;;4903093;29;20075;-77
2022/08/14 07:38:44;;;;;;;8.18;7.40;;;23.70;93.60;;;;;;4901515;29;20047;-77
2022/08/14 07:41:12;;;;;;;8.40;7.60;;;23.80;93.10;;;;;;4918554;29;20039;-79
2022/08/14 07:43:39;;;;;;;8.27;7.47;;;23.90;92.80;;;;;;4916685;29;20445;-78
2022/08/14 07:46:05;;;;;;;8.02;7.18;;;23.90;92.70;;;;;;4915941;29;20045;-77
2022/08/14 07:48:31;;;;;;;7.30;6.60;;;24.00;92.90;;;;;;4916513;29;20044;-77
2022/08/14 07:50:57;;;;;;;8.80;7.53;;;24.10;93.10;;;;;;4919078;29;20122;-78
2022/08/14 07:53:23;;;;;;;7.05;6.40;;;24.20;93.00;;;;;;4916900;29;20063;-79
2022/08/14 07:55:49;;;;;;;7.93;7.22;;;24.30;92.80;;;;;;4929356;29;20090;-80
2022/08/14 07:59:07;;;;;;;8.20;7.43;;;24.30;92.70;;;;;;4901217;29;20114;-80
2022/08/14 08:05:44;;;;;;;7.97;7.22;;;24.70;90.90;;;;;;4875336;29;20044;-81
2022/08/14 08:08:10;;;;;;;8.07;7.03;;;24.70;90.80;;;;;;4931924;29;20046;-79
2022/08/14 08:32:58;;;;;;;6.78;6.18;;;26.50;82.70;;;;;;4983289;28;20033;-80
2022/08/14 08:36:07;;;;;;;7.22;5.88;;;27.70;81.80;;;;;;4892131;29;20055;-81
2022/08/14 10:21:27;;;;;;;4.10;3.50;;;33.40;50.00;;;;;;5349602;23;20210;-80
2022/08/14 10:35:55;;;;;;;5.05;3.85;;;33.40;51.70;;;;;;4912916;29;20060;-79
2022/08/14 10:39:05;;;;;;;4.38;3.80;;;33.90;50.90;;;;;;4888332;29;20498;-79
2022/08/14 10:41:56;;;;;;;4.43;3.72;;;34.10;49.90;;;;;;4873565;29;20412;-79
2022/08/14 12:13:22;;;;;;;4.07;3.67;;;35.20;44.00;;;;;;4931028;29;20044;-84
2022/08/14 12:15:59;;;;;;;3.47;3.17;;;35.40;44.70;;;;;;4925175;29;20112;-82
2022/08/14 12:18:31;;;;;;;3.65;3.20;;;35.80;44.70;;;;;;4933499;29;20048;-82
2022/08/14 12:20:57;;;;;;;4.80;3.67;;;36.20;44.70;;;;;;4933126;29;20044;-82
2022/08/14 12:23:24;;;;;;;4.22;3.30;;;36.50;43.90;;;;;;4916878;29;20304;-82
2022/08/14 12:26:03;;;;;;;3.97;3.30;;;36.70;43.60;;;;;;4926257;29;20044;-82
2022/08/14 12:28:28;;;;;;;3.90;3.50;;;36.90;43.60;;;;;;4936799;29;20047;-82
2022/08/14 12:30:54;;;;;;;6.38;3.50;;;37.10;43.40;;;;;;4939858;29;20488;-82
2022/08/14 12:33:31;;;;;;;3.53;3.22;;;37.10;42.40;;;;;;4940524;29;20036;-82
2022/08/14 12:36:08;;;;;;;3.75;3.45;;;36.90;42.80;;;;;;4920620;29;20051;-82
2022/08/14 12:38:42;;;;;;;4.07;3.78;;;36.70;43.80;;;;;;4914524;29;20045;-83
2022/08/14 12:41:14;;;;;;;4.38;3.97;;;36.60;43.70;;;;;;4926632;29;20118;-83
2022/08/14 12:43:55;;;;;;;4.15;3.78;;;36.70;43.20;;;;;;4947111;29;20051;-82
2022/08/14 12:46:32;;;;;;;4.60;4.20;;;36.40;43.00;;;;;;4917322;29;20039;-86
2022/08/14 12:49:03;;;;;;;4.40;4.00;;;35.80;43.80;;;;;;4935720;29;20043;-78
2022/08/14 12:51:30;;;;;;;4.55;4.10;;;35.60;44.30;;;;;;4919872;29;20044;-78
2022/08/14 12:53:56;;;;;;;4.03;3.60;;;35.50;43.90;;;;;;4934346;29;20520;-78
2022/08/14 12:56:26;;;;;;;3.88;3.40;;;35.20;44.40;;;;;;4928847;29;20047;-78
2022/08/14 12:58:54;;;;;;;3.97;3.67;;;35.10;44.90;;;;;;4935945;29;20071;-81
2022/08/14 13:01:24;;;;;;;4.03;3.60;;;35.10;45.10;;;;;;4934582;29;20485;-80
2022/08/14 13:03:51;;;;;;;3.85;3.55;;;35.30;45.20;;;;;;4936743;29;20047;-82
2022/08/14 13:06:18;;;;;;;5.13;3.50;;;35.50;45.40;;;;;;4947327;29;20452;-82
2022/08/14 13:08:43;;;;;;;4.00;3.60;;;35.90;45.20;;;;;;4937215;29;20031;-81
2022/08/14 13:11:13;;;;;;;4.35;3.90;;;36.10;45.40;;;;;;4936445;29;20079;-81
2022/08/14 13:13:46;;;;;;;4.07;3.78;;;36.50;44.80;;;;;;4927824;29;20137;-81
2022/08/14 13:16:15;;;;;;;3.83;3.53;;;36.80;44.10;;;;;;4933206;29;20043;-81
2022/08/14 13:18:42;;;;;;;4.43;3.67;;;37.00;44.70;;;;;;4939098;29;20101;-81
2022/08/14 13:21:11;;;;;;;3.67;3.38;;;37.30;44.70;;;;;;4944962;29;20050;-82
2022/08/14 13:23:41;;;;;;;4.55;4.00;;;37.60;44.40;;;;;;4922756;29;20468;-82
2022/08/14 13:26:07;;;;;;;4.05;3.75;;;37.70;42.90;;;;;;4930529;29;20046;-81
2022/08/14 13:28:38;;;;;;;3.95;3.65;;;37.60;42.60;;;;;;4919965;29;20483;-82
2022/08/14 13:31:08;;;;;;;5.15;3.97;;;37.40;42.60;;;;;;4933074;29;20087;-82
2022/08/14 13:33:35;;;;;;;4.63;4.25;;;37.20;43.20;;;;;;4926004;29;20420;-79
2022/08/14 13:36:04;;;;;;;4.35;3.95;;;37.10;42.20;;;;;;4926777;29;20130;-82
2022/08/14 13:38:30;;;;;;;4.47;4.07;;;36.80;42.80;;;;;;4935583;29;20039;-83
2022/08/14 13:40:56;;;;;;;4.97;3.75;;;36.60;43.40;;;;;;4919779;29;20039;-81
2022/08/14 13:43:24;;;;;;;7.00;3.95;;;36.60;44.20;;;;;;4920635;29;20568;-81
2022/08/14 13:45:51;;;;;;;3.90;3.60;;;36.70;44.10;;;;;;4931850;29;20185;-81
2022/08/14 13:48:17;;;;;;;9.07;4.53;;;36.80;44.50;;;;;;4900782;29;20620;-81
2022/08/14 13:50:47;;;;;;;3.85;3.55;;;36.90;43.80;;;;;;4944022;28;20118;-83
2022/08/14 13:53:14;;;;;;;4.25;3.90;;;37.00;43.40;;;;;;4946622;28;20035;-81
2022/08/14 13:55:42;;;;;;;4.53;4.13;;;37.00;43.20;;;;;;4946794;29;20047;-82
2022/08/14 13:58:09;;;;;;;4.28;3.88;;;36.90;43.60;;;;;;4945333;28;20086;-82
2022/08/14 14:00:37;;;;;;;4.50;4.10;;;36.90;43.50;;;;;;4950621;29;20126;-82
2022/08/14 14:03:06;;;;;;;4.00;3.60;;;37.00;43.30;;;;;;4930342;29;20043;-81
2022/08/14 14:05:36;;;;;;;4.78;4.38;;;37.30;43.10;;;;;;4945447;29;20040;-81
2022/08/14 14:08:05;;;;;;;4.22;3.80;;;37.40;42.20;;;;;;4925869;29;20141;-83
2022/08/14 14:10:35;;;;;;;4.50;4.10;;;37.00;42.10;;;;;;4941908;29;20091;-81
2022/08/14 14:13:01;;;;;;;4.55;4.15;;;36.60;42.40;;;;;;4924035;29;20035;-82
2022/08/14 14:15:27;;;;;;;4.68;4.28;;;36.20;42.90;;;;;;4924181;29;20094;-82
2022/08/14 14:17:54;;;;;;;4.90;4.45;;;35.70;43.50;;;;;;4916592;29;20043;-82
2022/08/14 14:20:24;;;;;;;4.60;4.20;;;35.60;43.80;;;;;;4923382;29;20047;-83
2022/08/14 14:22:50;;;;;;;4.40;4.00;;;35.40;43.90;;;;;;4934229;29;20047;-83
2022/08/14 14:25:17;;;;;;;4.68;4.28;;;35.30;44.10;;;;;;4933910;29;20087;-83
2022/08/14 14:27:46;;;;;;;4.20;3.90;;;35.20;44.40;;;;;;4935037;28;20032;-82
2022/08/14 14:30:13;;;;;;;4.32;3.92;;;35.10;44.10;;;;;;4933600;29;20513;-83
2022/08/14 14:32:40;;;;;;;4.43;4.03;;;35.00;44.40;;;;;;4919592;29;20075;-83
2022/08/14 14:35:13;;;;;;;4.25;3.80;;;34.90;44.10;;;;;;4929265;29;20039;-83
2022/08/14 14:37:40;;;;;;;3.92;3.63;;;34.50;44.40;;;;;;4919606;29;20047;-83
2022/08/14 14:40:07;;;;;;;5.30;3.60;;;34.20;45.40;;;;;;4929895;29;20039;-83
2022/08/14 14:42:33;;;;;;;4.40;4.00;;;34.20;45.70;;;;;;4953858;28;20080;-83
2022/08/14 14:45:13;;;;;;;4.40;4.00;;;34.30;45.10;;;;;;4940469;29;20511;-83
2022/08/14 14:47:51;;;;;;;4.28;3.97;;;34.30;45.30;;;;;;4934092;29;20040;-83
2022/08/14 14:50:18;;;;;;;4.63;4.20;;;34.10;45.10;;;;;;4928938;29;20035;-83
2022/08/14 14:52:45;;;;;;;6.95;4.03;;;33.90;45.40;;;;;;4953378;29;20050;-83
2022/08/14 14:55:12;;;;;;;4.38;3.97;;;33.70;45.80;;;;;;4930609;29;20032;-83
2022/08/14 14:57:39;;;;;;;4.15;3.75;;;33.60;45.80;;;;;;4927139;29;20058;-83
2022/08/14 15:00:11;;;;;;;3.90;3.60;;;33.50;45.70;;;;;;4920415;29;20046;-83
2022/08/14 15:02:42;;;;;;;4.22;3.67;;;33.30;46.10;;;;;;4919055;29;20453;-82
2022/08/14 15:05:10;;;;;;;4.18;3.88;;;33.10;46.80;;;;;;4918044;29;20103;-82
2022/08/14 15:07:36;;;;;;;4.32;3.92;;;33.00;47.00;;;;;;4916722;29;20396;-80
2022/08/14 15:10:05;;;;;;;4.30;3.97;;;32.80;47.30;;;;;;4931567;29;20689;-80
2022/08/14 15:12:31;;;;;;;4.43;3.78;;;32.70;47.10;;;;;;4947162;29;20043;-79
2022/08/14 15:14:57;;;;;;;4.47;4.07;;;32.50;47.10;;;;;;4946917;28;20073;-79
2022/08/14 15:17:24;;;;;;;4.47;4.10;;;32.30;47.60;;;;;;4928999;29;20492;-79
2022/08/14 15:19:49;;;;;;;5.15;4.65;;;32.20;47.90;;;;;;4946306;28;20133;-79
2022/08/14 15:22:16;;;;;;;5.20;4.28;;;32.10;48.40;;;;;;4923625;29;20121;-79
2022/08/14 15:24:42;;;;;;;4.72;4.32;;;32.00;48.80;;;;;;4943158;29;20048;-79
2022/08/14 15:27:08;;;;;;;5.15;4.65;;;31.90;49.70;;;;;;4908438;29;20047;-79
2022/08/14 15:29:39;;;;;;;4.50;4.10;;;31.90;49.60;;;;;;4940792;29;20047;-79
2022/08/14 15:32:07;;;;;;;5.40;4.20;;;31.90;49.60;;;;;;4923591;29;20028;-80
2022/08/14 15:34:33;;;;;;;4.63;4.15;;;31.90;49.50;;;;;;4933078;29;20068;-81
2022/08/14 15:36:59;;;;;;;5.28;4.45;;;31.80;49.40;;;;;;4928768;28;20035;-80
2022/08/14 15:39:25;;;;;;;5.53;3.95;;;31.90;48.60;;;;;;4952803;28;20039;-80
2022/08/14 15:41:50;;;;;;;5.00;4.60;;;31.70;48.70;;;;;;4922051;29;20042;-80
2022/08/14 15:44:16;;;;;;;4.78;3.80;;;31.60;49.20;;;;;;4920765;29;20031;-79
2022/08/14 15:46:41;;;;;;;5.07;3.92;;;31.50;49.20;;;;;;4934570;29;20099;-79
2022/08/14 15:49:07;;;;;;;4.55;4.15;;;31.40;49.30;;;;;;4917246;29;20046;-80
2022/08/14 15:51:36;;;;;;;5.05;4.55;;;31.40;49.40;;;;;;4932677;29;20051;-81
2022/08/14 15:54:01;;;;;;;4.53;4.13;;;31.30;50.40;;;;;;4932491;29;20036;-80
2022/08/14 15:56:27;;;;;;;4.43;3.92;;;31.20;49.70;;;;;;4928119;29;20409;-83
2022/08/14 15:58:53;;;;;;;4.53;4.13;;;31.20;49.80;;;;;;4928423;29;20047;-83
2022/08/14 16:01:19;;;;;;;5.65;4.13;;;31.10;50.30;;;;;;4936535;29;20039;-84
2022/08/14 16:03:54;;;;;;;4.40;4.00;;;31.00;50.50;;;;;;4947913;29;20032;-83
2022/08/14 16:06:25;;;;;;;4.53;4.13;;;30.90;50.50;;;;;;4932821;29;20164;-84
2022/08/14 16:08:52;;;;;;;4.40;4.00;;;30.80;50.40;;;;;;4942815;29;20085;-81
2022/08/14 16:11:19;;;;;;;4.25;3.88;;;30.70;50.40;;;;;;4931874;29;20377;-80
2022/08/14 16:13:45;;;;;;;4.70;4.30;;;30.60;50.40;;;;;;4949923;28;20122;-80
2022/08/14 16:16:17;;;;;;;5.05;3.83;;;30.50;51.40;;;;;;4916609;29;20039;-80
2022/08/14 16:18:43;;;;;;;5.85;4.07;;;30.50;52.90;;;;;;4933863;29;20040;-80
2022/08/14 16:21:11;;;;;;;4.47;3.85;;;30.40;52.20;;;;;;4928681;29;20042;-80
2022/08/14 16:23:43;;;;;;;4.32;3.92;;;30.40;52.30;;;;;;4942352;28;20044;-80
2022/08/14 16:26:21;;;;;;;7.22;4.28;;;30.30;52.40;;;;;;4952364;29;20043;-80
2022/08/14 16:28:51;;;;;;;4.30;3.90;;;30.30;52.70;;;;;;4936034;29;20035;-80
2022/08/14 16:31:23;;;;;;;3.85;3.45;;;30.20;53.00;;;;;;4924809;29;20043;-80
2022/08/14 16:33:49;;;;;;;4.15;3.75;;;30.10;52.70;;;;;;4940064;29;20043;-80
2022/08/14 16:36:21;;;;;;;4.18;3.78;;;30.10;52.30;;;;;;4947051;29;20043;-80
2022/08/14 16:38:52;;;;;;;4.20;3.80;;;30.00;52.20;;;;;;4947303;28;20037;-81
2022/08/14 16:41:27;;;;;;;4.32;3.70;;;30.10;52.80;;;;;;4951322;28;20043;-80
2022/08/14 16:44:06;;;;;;;4.93;3.90;;;30.00;52.80;;;;;;4924348;29;20039;-80
2022/08/14 16:46:36;;;;;;;5.07;3.45;;;30.00;52.90;;;;;;4916737;29;20076;-80
2022/08/14 16:49:04;;;;;;;3.90;3.60;;;30.00;52.80;;;;;;4916900;29;20078;-80
2022/08/14 16:51:30;;;;;;;3.67;3.22;;;29.90;52.90;;;;;;4931027;29;20489;-80
2022/08/14 16:53:58;;;;;;;3.60;3.30;;;29.90;52.80;;;;;;4937892;29;20424;-80
2022/08/14 16:56:26;;;;;;;4.38;3.72;;;29.90;52.80;;;;;;4927156;29;20404;-80
2022/08/14 16:59:14;;;;;;;3.90;3.50;;;29.90;53.10;;;;;;4934492;29;20047;-80
2022/08/14 17:01:45;;;;;;;3.65;3.35;;;29.90;53.00;;;;;;4915422;29;20527;-80
2022/08/14 17:04:14;;;;;;;5.00;3.45;;;29.90;52.90;;;;;;4938893;29;20043;-81
2022/08/14 17:06:51;;;;;;;3.75;3.45;;;29.80;53.00;;;;;;4944436;29;20087;-80
2022/08/14 17:09:41;;;;;;;4.00;3.67;;;29.80;54.70;;;;;;4938304;29;20119;-80
2022/08/14 17:12:10;;;;;;;3.85;3.45;;;29.70;54.30;;;;;;4915910;29;20056;-80
2022/08/14 17:14:56;;;;;;;4.10;3.70;;;29.60;53.90;;;;;;4942395;29;20043;-81
2022/08/14 17:17:38;;;;;;;3.85;3.53;;;29.60;54.70;;;;;;4934730;28;20039;-81
2022/08/14 17:20:18;;;;;;;3.93;3.63;;;29.50;54.70;;;;;;4939794;29;20089;-80
2022/08/14 17:22:48;;;;;;;4.40;3.95;;;29.50;55.30;;;;;;4931450;29;20051;-81
2022/08/14 17:25:22;;;;;;;5.50;3.60;;;29.40;55.90;;;;;;4933833;29;20062;-81
2022/08/14 17:28:11;;;;;;;4.10;3.70;;;29.40;56.80;;;;;;4935233;29;20035;-81
2022/08/14 17:30:49;;;;;;;4.53;3.90;;;29.30;58.70;;;;;;4918294;29;20309;-81
2022/08/14 17:33:24;;;;;;;3.97;3.58;;;29.20;58.10;;;;;;4945726;29;20036;-80
2022/08/14 17:36:08;;;;;;;4.20;3.47;;;29.10;58.70;;;;;;4924537;29;20043;-80
2022/08/14 17:38:35;;;;;;;4.32;3.92;;;29.00;60.00;;;;;;4918691;29;20449;-80
2022/08/14 17:41:23;;;;;;;4.53;3.50;;;28.90;60.20;;;;;;4935027;29;20051;-80
2022/08/14 17:43:51;;;;;;;3.78;3.47;;;28.80;61.90;;;;;;4934546;29;20039;-80
2022/08/14 17:46:40;;;;;;;4.35;3.95;;;28.70;62.00;;;;;;4925595;29;20085;-80
2022/08/14 17:49:09;;;;;;;4.32;3.92;;;28.50;63.20;;;;;;4942738;29;20126;-80
2022/08/14 17:51:51;;;;;;;3.97;3.67;;;28.40;63.30;;;;;;4924881;29;20400;-81
2022/08/14 17:54:19;;;;;;;4.97;4.47;;;28.30;63.90;;;;;;4944810;29;20094;-80
2022/08/14 17:56:45;;;;;;;4.32;3.92;;;28.10;64.20;;;;;;4926542;29;20043;-80
2022/08/14 17:59:12;;;;;;;6.30;4.10;;;28.00;64.80;;;;;;4943427;29;20630;-81
2022/08/14 18:01:42;;;;;;;7.07;4.30;;;27.90;65.20;;;;;;4927878;29;20132;-80
2022/08/14 18:04:09;;;;;;;5.57;4.00;;;27.80;65.80;;;;;;4941443;28;20048;-80
2022/08/14 18:06:35;;;;;;;7.50;4.18;;;27.70;66.20;;;;;;4918205;29;20091;-80
2022/08/14 18:09:02;;;;;;;7.55;4.60;;;27.60;66.60;;;;;;4918532;29;20116;-80
2022/08/14 18:11:29;;;;;;;5.72;4.03;;;27.50;67.10;;;;;;4941533;29;20131;-80